Kefallina, Greece
Current Conditions -  °F | °C
As of 9:20 PM on Monday 22 Dec 2014 (Local Time) from LGZA Reporting Station
NA  
Wind Chill: 43°   Ceiling: NA
Heat Index: 43°   Visibility: NA
Dew Point: 41°   Wind: 1mph
Humidity: 93%   Direction: NA
Pressure: 30.36"   Gusts: NA
Location:  38.12°N, 20.5°E
Report Text: LGZA 221820Z AUTO VRB01KT //// // ////// 06/05 Q1028 RE//
Loading
Personal Weather Stations






























Interactive Weather Map New forecast layout! Learn more

10-Day Weather Forecast

Advertisements
Track Severe Weather on mobile